Terminal Aerodrome Forecast
Issued by NWS

Home | Current Version | Previous Version | Text Only | Print | Product List | Glossary On
Versions: 1 2 3 4 5 6 7 8 9 10 11 12 13 14
000
FTUS42 KTBW 262339
TAFLAL
TAF
KLAL 262339Z 2700/2724 08015G25KT 5SM SHRA SCT010 BKN015 OVC040
     FM270100 10005KT P6SM SCT020 BKN050
     FM271400 09007KT P6SM FEW030 SCT250
     FM272000 08009KT P6SM VCTS FEW025CB SCT050 BKN250
      AMD NOT SKED 2703/2712=

USA.gov is the U.S. government's official web portal to all federal, state and local government web resources and services.